createdAt,value
2019-06-08T00:00:37.276Z,100754.33
2019-06-08T00:01:39.501Z,100740.41
2019-06-08T00:02:42.101Z,100724.16
2019-06-08T00:03:44.323Z,100709.34
2019-06-08T00:04:46.976Z,100692.98
2019-06-08T00:05:49.243Z,100673.70
2019-06-08T00:06:51.870Z,100673.83
2019-06-08T00:07:54.081Z,100683.00
2019-06-08T00:08:56.691Z,100681.30
2019-06-08T00:09:58.887Z,100692.98
2019-06-08T00:11:01.537Z,100702.55
2019-06-08T00:12:03.738Z,100701.64
2019-06-08T00:13:06.323Z,100692.46
2019-06-08T00:14:08.538Z,100680.38
2019-06-08T00:15:11.137Z,100673.83
2019-06-08T00:16:13.373Z,100675.70
2019-06-08T00:17:30.435Z,100677.01
2019-06-08T00:18:19.840Z,100673.47
2019-06-08T00:19:23.565Z,100679.52
2019-06-08T00:20:25.956Z,100690.23
2019-06-08T00:21:28.569Z,100703.58
2019-06-08T00:22:30.788Z,100716.81
2019-06-08T00:23:33.399Z,100724.68
2019-06-08T00:24:35.622Z,100729.69
2019-06-08T00:25:38.166Z,100742.41
2019-06-08T00:26:40.368Z,100746.17
2019-06-08T00:27:42.971Z,100746.45
2019-06-08T00:28:45.182Z,100743.84
2019-06-08T00:29:47.809Z,100746.58
2019-06-08T00:30:50.033Z,100741.73
2019-06-08T00:31:52.663Z,100739.38
2019-06-08T00:32:54.867Z,100749.23
2019-06-08T00:33:57.472Z,100756.31
2019-06-08T00:34:59.679Z,100754.20
2019-06-08T00:36:02.311Z,100759.84
2019-06-08T00:37:04.644Z,100765.21
2019-06-08T00:38:07.242Z,100772.95
2019-06-08T00:39:09.764Z,100767.84
2019-06-08T00:40:12.359Z,100766.00
2019-06-08T00:41:16.962Z,100760.76
2019-06-08T00:42:19.324Z,100762.34
2019-06-08T00:43:21.682Z,100763.78
2019-06-08T00:44:25.577Z,100755.28
2019-06-08T00:45:27.887Z,100736.52
2019-06-08T00:46:30.489Z,100735.21
2019-06-08T00:47:46.996Z,100732.08
2019-06-08T00:48:36.955Z,100750.16
2019-06-08T00:49:39.591Z,100755.91
2019-06-08T00:50:42.182Z,100769.55
2019-06-08T00:51:44.415Z,100769.27
2019-06-08T00:52:47.010Z,100758.66
2019-06-08T00:53:49.233Z,100756.95
2019-06-08T00:54:51.838Z,100765.73
2019-06-08T00:55:54.068Z,100766.00
2019-06-08T00:56:56.959Z,100762.59
2019-06-08T00:57:59.187Z,100764.30
2019-06-08T00:59:01.802Z,100767.72
2019-06-08T01:00:10.162Z,100770.34
2019-06-08T01:01:08.361Z,100772.44
2019-06-08T01:02:10.597Z,100771.12
2019-06-08T01:03:13.222Z,100766.68
2019-06-08T01:04:15.437Z,100769.06
2019-06-08T01:05:18.052Z,100769.58
2019-06-08T01:06:20.974Z,100763.42
2019-06-08T01:07:24.076Z,100756.70
2019-06-08T01:08:27.391Z,100755.03
2019-06-08T01:09:31.168Z,100757.27
2019-06-08T01:10:33.537Z,100753.97
2019-06-08T01:11:36.134Z,100752.14
2019-06-08T01:12:38.368Z,100742.56
2019-06-08T01:13:40.990Z,100745.98
2019-06-08T01:14:43.209Z,100753.33
2019-06-08T01:15:45.807Z,100752.93
2019-06-08T01:16:48.013Z,100753.84
2019-06-08T01:18:02.279Z,100756.47
2019-06-08T01:18:54.524Z,100758.42
2019-06-08T01:19:57.102Z,100759.21
2019-06-08T01:20:59.320Z,100764.45
2019-06-08T01:22:01.960Z,100772.72
2019-06-08T01:23:04.150Z,100766.44
2019-06-08T01:24:06.755Z,100762.23
2019-06-08T01:25:08.959Z,100762.23
2019-06-08T01:26:11.586Z,100763.94
2019-06-08T01:27:13.824Z,100769.42
2019-06-08T01:28:16.431Z,100766.68
2019-06-08T01:29:20.064Z,100773.12
2019-06-08T01:30:24.141Z,100775.98
2019-06-08T01:31:26.629Z,100769.58
2019-06-08T01:32:30.569Z,100771.41
2019-06-08T01:33:32.812Z,100760.92
2019-06-08T01:34:35.407Z,100768.39
2019-06-08T01:35:37.644Z,100764.22
2019-06-08T01:36:40.244Z,100763.81
2019-06-08T01:37:42.458Z,100760.28
2019-06-08T01:38:45.069Z,100754.24
2019-06-08T01:39:47.296Z,100759.09
2019-06-08T01:40:49.896Z,100770.77
2019-06-08T01:41:52.115Z,100763.02
2019-06-08T01:42:54.735Z,100763.42
2019-06-08T01:43:57.175Z,100761.44
2019-06-08T01:44:59.789Z,100770.61
2019-06-08T01:46:02.042Z,100768.39
2019-06-08T01:47:04.592Z,100765.89
2019-06-08T01:48:19.586Z,100760.13
2019-06-08T01:49:11.078Z,100759.61
2019-06-08T01:50:13.306Z,100754.77
2019-06-08T01:51:15.907Z,100745.70
2019-06-08T01:52:18.132Z,100743.88
2019-06-08T01:53:20.742Z,100756.34
2019-06-08T01:54:22.957Z,100755.28
2019-06-08T01:55:25.570Z,100746.10
2019-06-08T01:56:29.228Z,100746.62
2019-06-08T01:57:31.882Z,100756.07
2019-06-08T01:58:34.095Z,100760.80
2019-06-08T01:59:36.724Z,100774.15
2019-06-08T02:00:41.395Z,100786.86
2019-06-08T02:01:43.175Z,100784.64
2019-06-08T02:02:45.410Z,100785.55
2019-06-08T02:03:48.004Z,100777.69
2019-06-08T02:04:50.277Z,100763.14
2019-06-08T02:05:52.892Z,100761.44
2019-06-08T02:06:55.097Z,100762.23
2019-06-08T02:07:57.716Z,100784.39
2019-06-08T02:08:59.928Z,100793.97
2019-06-08T02:10:02.535Z,100789.37
2019-06-08T02:11:04.733Z,100776.53
2019-06-08T02:12:07.332Z,100773.91
2019-06-08T02:13:09.563Z,100765.64
2019-06-08T02:14:12.151Z,100760.00
2019-06-08T02:15:14.373Z,100747.81
2019-06-08T02:16:16.969Z,100731.56
2019-06-08T02:17:19.193Z,100715.19
2019-06-08T02:18:35.431Z,100707.20
2019-06-08T02:19:26.557Z,100705.73
2019-06-08T02:20:30.591Z,100725.41
2019-06-08T02:21:33.110Z,100738.79
2019-06-08T02:22:35.656Z,100731.72
2019-06-08T02:23:37.859Z,100717.70
2019-06-08T02:24:40.477Z,100695.41
2019-06-08T02:25:42.685Z,100688.34
2019-06-08T02:26:45.288Z,100690.05
2019-06-08T02:27:47.537Z,100696.48
2019-06-08T02:28:50.127Z,100718.21
2019-06-08T02:29:52.339Z,100719.13
2019-06-08T02:30:54.932Z,100703.27
2019-06-08T02:31:57.228Z,100688.06
2019-06-08T02:32:59.824Z,100680.59
2019-06-08T02:34:02.042Z,100700.77
2019-06-08T02:35:04.641Z,100727.91
2019-06-08T02:36:06.958Z,100734.98
2019-06-08T02:37:09.579Z,100740.10
2019-06-08T02:38:11.801Z,100741.92
2019-06-08T02:39:14.406Z,100742.33
2019-06-08T02:40:16.622Z,100742.72
2019-06-08T02:41:19.219Z,100741.29
2019-06-08T02:42:21.416Z,100738.55
2019-06-08T02:43:25.942Z,100738.55
2019-06-08T02:44:28.732Z,100743.64
2019-06-08T02:45:34.086Z,100754.80
2019-06-08T02:46:38.263Z,100762.94
2019-06-08T02:47:41.114Z,100764.38
2019-06-08T02:49:02.783Z,100746.93
2019-06-08T02:49:47.953Z,100739.98
2019-06-08T02:50:50.173Z,100733.58
2019-06-08T02:51:52.774Z,100716.94
2019-06-08T02:52:54.975Z,100687.95
2019-06-08T02:53:57.578Z,100669.08
2019-06-08T02:54:59.967Z,100660.70
2019-06-08T02:56:02.557Z,100678.25
2019-06-08T02:57:04.784Z,100693.98
2019-06-08T02:58:07.383Z,100712.61
2019-06-08T02:59:09.599Z,100725.56
2019-06-08T03:00:12.384Z,100730.44
2019-06-08T03:01:15.105Z,100729.77
2019-06-08T03:02:17.636Z,100723.73
2019-06-08T03:03:19.855Z,100719.56
2019-06-08T03:04:22.442Z,100723.49
2019-06-08T03:05:24.701Z,100715.08
2019-06-08T03:06:27.302Z,100715.88
2019-06-08T03:07:30.407Z,100713.25
2019-06-08T03:08:34.392Z,100711.02
2019-06-08T03:09:36.728Z,100706.70
2019-06-08T03:10:41.215Z,100708.52
2019-06-08T03:11:43.613Z,100696.36
2019-06-08T03:12:46.208Z,100706.30
2019-06-08T03:13:48.413Z,100704.75
2019-06-08T03:14:51.014Z,100702.92
2019-06-08T03:15:53.262Z,100695.45
2019-06-08T03:16:55.864Z,100702.13
2019-06-08T03:17:58.060Z,100706.17
2019-06-08T03:19:09.819Z,100715.88
2019-06-08T03:20:04.520Z,100714.44
2019-06-08T03:21:07.154Z,100714.95
2019-06-08T03:22:11.071Z,100723.61
2019-06-08T03:23:13.782Z,100718.65
2019-06-08T03:24:15.991Z,100729.41
2019-06-08T03:25:18.601Z,100727.70
2019-06-08T03:26:20.823Z,100739.50
2019-06-08T03:27:23.421Z,100742.24
2019-06-08T03:28:25.843Z,100738.31
2019-06-08T03:29:28.444Z,100742.76
2019-06-08T03:30:30.665Z,100740.02
2019-06-08T03:31:36.121Z,100746.97
2019-06-08T03:32:41.187Z,100741.84
2019-06-08T03:33:50.918Z,100740.93
2019-06-08T03:34:54.318Z,100742.64
2019-06-08T03:35:56.974Z,100745.26
2019-06-08T03:36:56.712Z,100745.26
2019-06-08T03:37:57.697Z,100744.74
2019-06-08T03:38:59.931Z,100745.14
2019-06-08T03:40:02.535Z,100742.64
2019-06-08T03:41:04.751Z,100745.53
2019-06-08T03:42:07.339Z,100744.22
2019-06-08T03:43:09.565Z,100738.06
2019-06-08T03:44:12.155Z,100737.03
2019-06-08T03:45:14.381Z,100739.66
2019-06-08T03:46:16.981Z,100734.41
2019-06-08T03:47:19.185Z,100738.22
2019-06-08T03:48:21.787Z,100741.23
2019-06-08T03:49:40.384Z,100742.67
2019-06-08T03:50:28.304Z,100740.84
2019-06-08T03:51:35.072Z,100749.23
2019-06-08T03:52:35.371Z,100738.62
2019-06-08T03:53:38.359Z,100737.70
2019-06-08T03:54:43.086Z,100735.33
2019-06-08T03:55:47.265Z,100737.55
2019-06-08T03:56:50.086Z,100741.23
2019-06-08T03:57:52.296Z,100735.08
2019-06-08T03:58:54.895Z,100729.84
2019-06-08T03:59:57.245Z,100729.05
2019-06-08T04:00:59.828Z,100728.53
2019-06-08T04:02:02.060Z,100729.45
2019-06-08T04:03:04.652Z,100730.59
2019-06-08T04:04:06.865Z,100728.37
2019-06-08T04:05:09.492Z,100726.55
2019-06-08T04:06:11.701Z,100720.39
2019-06-08T04:07:14.313Z,100727.06
2019-06-08T04:08:16.530Z,100723.41
2019-06-08T04:09:19.154Z,100718.84
2019-06-08T04:10:21.468Z,100721.58
2019-06-08T04:11:24.080Z,100719.75
2019-06-08T04:12:26.282Z,100715.70
2019-06-08T04:13:28.881Z,100713.08
2019-06-08T04:14:31.096Z,100721.46
2019-06-08T04:15:33.727Z,100721.06
2019-06-08T04:16:38.087Z,100722.77
2019-06-08T04:17:42.045Z,100731.94
2019-06-08T04:18:44.531Z,100720.55
2019-06-08T04:20:06.366Z,100719.63
2019-06-08T04:20:52.234Z,100723.72
2019-06-08T04:21:54.837Z,100721.61
2019-06-08T04:22:57.050Z,100718.87
2019-06-08T04:23:59.659Z,100711.25
2019-06-08T04:25:01.882Z,100711.80
2019-06-08T04:26:04.480Z,100705.25
2019-06-08T04:27:06.685Z,100706.69
2019-06-08T04:28:09.283Z,100707.47
2019-06-08T04:29:11.507Z,100706.01
2019-06-08T04:30:14.119Z,100711.13
2019-06-08T04:31:16.337Z,100711.13
2019-06-08T04:32:18.953Z,100711.13
2019-06-08T04:33:21.176Z,100710.89
2019-06-08T04:34:23.792Z,100720.98
2019-06-08T04:35:25.999Z,100729.59
2019-06-08T04:36:28.612Z,100721.73
2019-06-08T04:37:30.815Z,100712.05
2019-06-08T04:38:33.632Z,100709.30
2019-06-08T04:39:35.868Z,100702.88
2019-06-08T04:40:39.509Z,100706.41
2019-06-08T04:41:42.801Z,100703.91
2019-06-08T04:42:48.777Z,100708.39
2019-06-08T04:43:50.468Z,100718.20
2019-06-08T04:44:53.087Z,100728.80
2019-06-08T04:45:55.296Z,100742.85
2019-06-08T04:46:57.899Z,100751.11
2019-06-08T04:48:00.129Z,100757.50
2019-06-08T04:49:02.729Z,100755.16
2019-06-08T04:50:20.892Z,100760.23
2019-06-08T04:51:09.204Z,100755.27
2019-06-08T04:52:11.426Z,100743.48
2019-06-08T04:53:14.027Z,100738.91
2019-06-08T04:54:16.238Z,100728.31
2019-06-08T04:55:18.850Z,100706.83
2019-06-08T04:56:21.039Z,100720.72
2019-06-08T04:57:23.649Z,100730.80
2019-06-08T04:58:25.855Z,100734.46
2019-06-08T04:59:28.484Z,100738.64
2019-06-08T05:00:31.530Z,100726.48
2019-06-08T05:01:34.199Z,100732.11
2019-06-08T05:02:36.449Z,100725.16
2019-06-08T05:03:39.322Z,100727.52
2019-06-08T05:04:43.336Z,100725.17
2019-06-08T05:05:47.585Z,100734.73
2019-06-08T05:06:50.407Z,100735.66
2019-06-08T05:07:53.000Z,100745.34
2019-06-08T05:08:55.249Z,100739.98
2019-06-08T05:09:57.856Z,100739.82
2019-06-08T05:11:00.082Z,100737.75
2019-06-08T05:12:02.677Z,100737.59
2019-06-08T05:13:04.888Z,100732.63
2019-06-08T05:14:07.483Z,100731.20
2019-06-08T05:15:09.699Z,100735.37
2019-06-08T05:16:12.325Z,100735.89
2019-06-08T05:17:14.548Z,100735.63
2019-06-08T05:18:17.155Z,100741.53
2019-06-08T05:19:19.417Z,100745.47
2019-06-08T05:20:37.693Z,100744.28
2019-06-08T05:21:25.994Z,100751.07
2019-06-08T05:22:28.593Z,100742.58
2019-06-08T05:23:30.806Z,100754.64
2019-06-08T05:24:33.424Z,100748.08
2019-06-08T05:25:35.635Z,100752.14
2019-06-08T05:26:39.256Z,100755.27
2019-06-08T05:27:41.551Z,100754.09
2019-06-08T05:28:45.214Z,100759.09
2019-06-08T05:29:47.500Z,100754.23
2019-06-08T05:30:50.111Z,100760.52
2019-06-08T05:31:52.331Z,100765.75
2019-06-08T05:32:54.935Z,100758.69
2019-06-08T05:33:57.155Z,100751.87
2019-06-08T05:34:59.784Z,100761.20
2019-06-08T05:36:02.002Z,100763.55
2019-06-08T05:37:04.617Z,100761.96
2019-06-08T05:38:06.816Z,100752.39
2019-06-08T05:39:09.429Z,100756.84
2019-06-08T05:40:11.685Z,100755.02
2019-06-08T05:41:14.268Z,100752.91
2019-06-08T05:42:16.488Z,100742.03
2019-06-08T05:43:19.100Z,100742.95
2019-06-08T05:44:21.314Z,100746.48
2019-06-08T05:45:23.939Z,100741.75
2019-06-08T05:46:26.239Z,100742.55
2019-06-08T05:47:28.852Z,100736.79
2019-06-08T05:48:31.074Z,100737.22
2019-06-08T05:49:33.659Z,100737.73
2019-06-08T05:50:35.868Z,100739.41
2019-06-08T05:51:39.694Z,100739.32
2019-06-08T05:52:42.051Z,100742.45
2019-06-08T05:53:45.749Z,100740.23
2019-06-08T05:54:48.067Z,100751.63
2019-06-08T05:55:50.704Z,100750.31
2019-06-08T05:56:52.940Z,100758.69
2019-06-08T05:57:55.528Z,100755.00
2019-06-08T05:58:57.741Z,100761.19
2019-06-08T06:00:00.354Z,100760.12
2019-06-08T06:01:02.610Z,100769.29
2019-06-08T06:02:05.245Z,100768.00
2019-06-08T06:03:07.467Z,100766.81
2019-06-08T06:04:10.079Z,100765.77
2019-06-08T06:05:12.438Z,100762.48
2019-06-08T06:06:14.990Z,100766.17
2019-06-08T06:07:17.186Z,100753.47
2019-06-08T06:08:19.908Z,100768.24
2019-06-08T06:09:22.119Z,100767.48
2019-06-08T06:10:24.737Z,100761.57
2019-06-08T06:11:26.967Z,100770.36
2019-06-08T06:12:29.687Z,100766.55
2019-06-08T06:13:31.916Z,100768.38
2019-06-08T06:14:36.893Z,100768.80
2019-06-08T06:15:38.399Z,100765.63
2019-06-08T06:16:41.015Z,100778.72
2019-06-08T06:17:43.953Z,100786.86
2019-06-08T06:18:47.521Z,100790.13
2019-06-08T06:19:49.744Z,100796.80
2019-06-08T06:20:52.373Z,100805.73
2019-06-08T06:21:54.578Z,100801.67
2019-06-08T06:22:58.600Z,100797.61
2019-06-08T06:24:00.905Z,100809.02
2019-06-08T06:25:03.519Z,100802.59
2019-06-08T06:26:05.781Z,100808.86
2019-06-08T06:27:08.346Z,100813.86
2019-06-08T06:28:10.558Z,100822.34
2019-06-08T06:29:13.169Z,100822.74
2019-06-08T06:30:15.417Z,100817.27
2019-06-08T06:31:18.128Z,100813.59
2019-06-08T06:32:20.379Z,100815.41
2019-06-08T06:33:22.935Z,100808.72
2019-06-08T06:34:25.156Z,100810.42
2019-06-08T06:35:27.781Z,100814.11
2019-06-08T06:36:29.986Z,100813.84
2019-06-08T06:37:32.594Z,100804.14
2019-06-08T06:38:34.807Z,100805.34
2019-06-08T06:39:37.406Z,100808.36
2019-06-08T06:40:39.643Z,100809.67
2019-06-08T06:41:42.235Z,100813.05
2019-06-08T06:42:45.856Z,100825.41
2019-06-08T06:43:48.538Z,100809.91
2019-06-08T06:44:52.311Z,100816.47
2019-06-08T06:45:55.103Z,100824.20
2019-06-08T06:46:57.328Z,100821.19
2019-06-08T06:47:59.935Z,100818.56
2019-06-08T06:49:02.139Z,100821.81
2019-06-08T06:50:04.746Z,100829.30
2019-06-08T06:51:06.959Z,100827.31
2019-06-08T06:52:09.610Z,100824.05
2019-06-08T06:53:11.824Z,100835.05
2019-06-08T06:54:14.416Z,100835.45
2019-06-08T06:55:16.642Z,100821.31
2019-06-08T06:56:19.255Z,100827.97
2019-06-08T06:57:21.500Z,100830.47
2019-06-08T06:58:24.209Z,100829.68
2019-06-08T06:59:26.421Z,100827.97
2019-06-08T07:00:29.051Z,100844.24
2019-06-08T07:01:31.307Z,100843.75
2019-06-08T07:02:33.888Z,100845.45
2019-06-08T07:03:36.135Z,100835.31
2019-06-08T07:04:38.747Z,100839.55
2019-06-08T07:05:41.007Z,100842.02
2019-06-08T07:06:44.013Z,100838.86
2019-06-08T07:07:46.336Z,100834.95
2019-06-08T07:08:50.235Z,100833.12
2019-06-08T07:09:52.792Z,100850.13
2019-06-08T07:10:55.477Z,100848.05
2019-06-08T07:11:57.700Z,100847.28
2019-06-08T07:13:00.327Z,100849.91
2019-06-08T07:14:02.548Z,100858.39
2019-06-08T07:15:05.156Z,100858.00
2019-06-08T07:16:17.956Z,100858.39
2019-06-08T07:17:11.638Z,100859.98
2019-06-08T07:18:13.855Z,100864.82
2019-06-08T07:19:16.466Z,100867.84
2019-06-08T07:20:18.695Z,100870.58
2019-06-08T07:21:21.318Z,100872.92
2019-06-08T07:22:23.547Z,100868.63
2019-06-08T07:23:26.143Z,100863.89
2019-06-08T07:24:28.406Z,100869.12
2019-06-08T07:25:31.898Z,100860.87
2019-06-08T07:26:34.154Z,100857.22
2019-06-08T07:27:36.764Z,100863.64
2019-06-08T07:28:38.980Z,100856.69
2019-06-08T07:29:41.587Z,100864.28
2019-06-08T07:30:43.807Z,100866.37
2019-06-08T07:31:46.700Z,100870.30
2019-06-08T07:32:50.926Z,100858.80
2019-06-08T07:33:53.695Z,100865.47
2019-06-08T07:34:55.985Z,100868.48
2019-06-08T07:35:59.882Z,100875.94
2019-06-08T07:37:02.226Z,100876.61
2019-06-08T07:38:04.886Z,100890.78
2019-06-08T07:39:07.080Z,100878.34
2019-06-08T07:40:09.754Z,100876.23
2019-06-08T07:41:11.980Z,100885.39
2019-06-08T07:42:14.603Z,100886.81
2019-06-08T07:43:16.851Z,100885.13
2019-06-08T07:44:19.443Z,100889.32
2019-06-08T07:45:21.700Z,100883.52
2019-06-08T07:46:24.313Z,100889.72
2019-06-08T07:47:26.532Z,100884.20
2019-06-08T07:48:29.142Z,100889.84
2019-06-08T07:49:31.350Z,100883.81
2019-06-08T07:50:33.980Z,100893.25
2019-06-08T07:51:36.205Z,100892.17
2019-06-08T07:52:38.840Z,100888.91
2019-06-08T07:53:41.056Z,100886.28
2019-06-08T07:54:43.678Z,100885.10
2019-06-08T07:55:47.053Z,100882.88
2019-06-08T07:56:51.501Z,100885.50
2019-06-08T07:57:54.121Z,100893.48
2019-06-08T07:58:57.187Z,100879.59
2019-06-08T08:00:00.130Z,100887.33
2019-06-08T08:01:07.967Z,100878.95
2019-06-08T08:02:06.865Z,100886.55
2019-06-08T08:03:09.468Z,100886.55
2019-06-08T08:04:11.679Z,100889.30
2019-06-08T08:05:14.279Z,100884.06
2019-06-08T08:06:16.536Z,100890.73
2019-06-08T08:07:19.140Z,100887.59
2019-06-08T08:08:21.350Z,100895.58
2019-06-08T08:09:23.947Z,100889.82
2019-06-08T08:10:26.176Z,100888.52
2019-06-08T08:11:28.836Z,100888.12
2019-06-08T08:12:31.125Z,100883.54
2019-06-08T08:13:33.757Z,100894.55
2019-06-08T08:14:36.189Z,100895.45
2019-06-08T08:15:38.846Z,100886.41
2019-06-08T08:16:41.193Z,100891.78
2019-06-08T08:17:43.820Z,100900.03
2019-06-08T08:18:46.019Z,100900.55
2019-06-08T08:19:48.985Z,100896.50
2019-06-08T08:20:51.335Z,100897.70
2019-06-08T08:21:54.968Z,100888.24
2019-06-08T08:23:04.124Z,100895.19
2019-06-08T08:42:04.408Z,100899.92
2019-06-08T08:43:02.920Z,100905.80
2019-06-08T08:44:05.133Z,100911.45
2019-06-08T08:45:08.791Z,100916.17
2019-06-08T08:46:11.337Z,100910.39
2019-06-08T08:47:13.932Z,100910.91
2019-06-08T08:48:25.370Z,100912.22
2019-06-08T08:49:23.209Z,100908.95
2019-06-08T08:50:25.416Z,100907.77
2019-06-08T08:51:28.151Z,100903.32
2019-06-08T08:52:36.804Z,100908.55
2019-06-08T08:53:34.706Z,100917.85
2019-06-08T08:54:37.686Z,100909.08
2019-06-08T08:55:40.531Z,100916.83
2019-06-08T08:56:42.785Z,100912.75
2019-06-08T08:57:45.423Z,100903.84
2019-06-08T08:58:47.845Z,100901.61
2019-06-08T08:59:53.472Z,100905.79
2019-06-08T09:00:55.333Z,100904.47
2019-06-08T09:02:01.035Z,100907.25
2019-06-08T09:03:29.133Z,100908.16
2019-06-08T09:04:08.795Z,100915.91
2019-06-08T09:05:10.525Z,100901.11
2019-06-08T09:06:13.179Z,100913.94
2019-06-08T09:07:15.389Z,100911.58
2019-06-08T09:08:18.904Z,100918.52
2019-06-08T09:09:21.627Z,100920.48
2019-06-08T09:10:24.581Z,100923.50
2019-06-08T09:11:28.812Z,100938.56
2019-06-08T09:12:31.095Z,100927.56
2019-06-08T09:13:33.324Z,100938.17
2019-06-08T09:14:38.720Z,100936.47
2019-06-08T09:15:39.803Z,100945.25
2019-06-08T09:16:42.400Z,100953.48
2019-06-08T09:17:44.645Z,100949.17
2019-06-08T09:18:48.015Z,100954.78
2019-06-08T09:19:52.427Z,100950.84
2019-06-08T09:20:55.888Z,100945.75
2019-06-08T09:22:01.207Z,100953.61
2019-06-08T09:23:11.724Z,100961.34
2019-06-08T09:24:07.705Z,100948.38
2019-06-08T09:25:13.388Z,100952.70
2019-06-08T09:26:14.392Z,100962.49
2019-06-08T09:27:17.937Z,100960.00
2019-06-08T09:28:20.311Z,100952.01
2019-06-08T09:29:22.904Z,100948.90
2019-06-08T09:30:27.378Z,100955.70
2019-06-08T09:31:31.104Z,100947.43
2019-06-08T09:32:33.333Z,100947.17
2019-06-08T09:33:38.660Z,100955.16
2019-06-08T09:34:39.894Z,100947.70
2019-06-08T09:35:42.517Z,100949.39
2019-06-08T09:36:44.756Z,100957.25
2019-06-08T09:37:48.534Z,100959.50
2019-06-08T09:38:53.216Z,100958.58
2019-06-08T09:39:56.426Z,100955.20
2019-06-08T09:41:01.235Z,100960.56
2019-06-08T09:42:04.864Z,100968.03
2019-06-08T09:43:12.436Z,100958.35
2019-06-08T09:44:12.047Z,100959.14
2019-06-08T09:45:14.460Z,100965.17
2019-06-08T09:46:17.873Z,100965.44
2019-06-08T09:47:21.164Z,100982.17
2019-06-08T09:48:23.794Z,100963.19
2019-06-08T09:49:27.930Z,100973.27
2019-06-08T09:50:30.277Z,100974.05
2019-06-08T09:51:32.497Z,100973.92
2019-06-08T09:52:35.090Z,100977.47
2019-06-08T09:53:41.233Z,100982.97
2019-06-08T09:54:41.557Z,100996.30
2019-06-08T09:55:43.844Z,100978.59
2019-06-08T09:56:47.857Z,100985.53
2019-06-08T09:57:50.198Z,100982.75
2019-06-08T09:58:52.810Z,100985.46
2019-06-08T09:59:57.174Z,100987.69
2019-06-08T10:01:02.296Z,100996.39
2019-06-08T10:02:06.450Z,100991.94
2019-06-08T10:03:09.378Z,100991.21
2019-06-08T10:04:12.846Z,100988.08
2019-06-08T10:05:18.313Z,100994.66
2019-06-08T10:06:19.345Z,100985.14
2019-06-08T10:07:21.965Z,100991.98
2019-06-08T10:08:24.221Z,100989.75
2019-06-08T10:09:28.406Z,100979.28
2019-06-08T10:10:30.838Z,100993.69
2019-06-08T10:11:33.432Z,100998.14
2019-06-08T10:12:37.782Z,100985.83
2019-06-08T10:13:43.265Z,100991.45
2019-06-08T10:14:43.789Z,100986.22
2019-06-08T10:15:51.197Z,100987.53
2019-06-08T10:16:50.277Z,100990.15
2019-06-08T10:17:52.868Z,100990.94
2019-06-08T10:18:57.690Z,101003.64
2019-06-08T10:20:01.207Z,101001.15
2019-06-08T10:21:05.989Z,100994.73
2019-06-08T10:22:08.563Z,100993.81
2019-06-08T10:23:27.327Z,101002.98
2019-06-08T10:24:15.238Z,101004.95
2019-06-08T10:25:17.475Z,101022.23
2019-06-08T10:26:20.056Z,101009.40
2019-06-08T10:27:22.250Z,100998.63
2019-06-08T10:28:24.888Z,101002.85
2019-06-08T10:29:27.129Z,101009.80
2019-06-08T10:30:30.368Z,101016.05
2019-06-08T10:31:39.088Z,101016.05
2019-06-08T10:32:38.278Z,101012.25
2019-06-08T10:33:40.997Z,101011.72
2019-06-08T10:34:43.753Z,101022.72
2019-06-08T10:35:47.943Z,101019.87
2019-06-08T10:36:50.201Z,101015.55
2019-06-08T10:37:55.177Z,101020.50
2019-06-08T10:38:59.378Z,101013.16
2019-06-08T10:40:02.513Z,101013.46
2019-06-08T10:41:12.881Z,101031.41
2019-06-08T10:42:10.130Z,101014.25
2019-06-08T10:43:12.940Z,101019.09
2019-06-08T10:44:15.192Z,101022.50
2019-06-08T10:45:18.574Z,101032.84
2019-06-08T10:46:21.152Z,101006.52
2019-06-08T10:47:23.833Z,101017.52
2019-06-08T10:48:27.634Z,101052.36
2019-06-08T10:49:30.357Z,101011.23
2019-06-08T10:50:32.578Z,101013.86
2019-06-08T10:51:35.160Z,101021.19
2019-06-08T10:52:39.134Z,101012.15
2019-06-08T10:53:48.374Z,101021.31
2019-06-08T10:54:45.609Z,101012.94
2019-06-08T10:55:48.282Z,101023.67
2019-06-08T10:56:50.524Z,101016.34
2019-06-08T10:57:53.132Z,101025.25
2019-06-08T10:58:55.344Z,101047.51
2019-06-08T10:59:59.733Z,101043.72
2019-06-08T11:01:07.036Z,101029.17
2019-06-08T11:02:13.706Z,101032.72
2019-06-08T11:03:12.272Z,101041.09
2019-06-08T11:04:14.897Z,101023.81
2019-06-08T11:05:18.118Z,101034.28
2019-06-08T11:06:20.973Z,101031.50
2019-06-08T11:07:23.176Z,101054.32
2019-06-08T11:08:27.526Z,101035.98
2019-06-08T11:09:29.628Z,101036.52
2019-06-08T11:10:32.248Z,101052.62
2019-06-08T11:11:34.478Z,101050.22
2019-06-08T11:12:37.685Z,101041.84
2019-06-08T11:13:40.126Z,101038.70
2019-06-08T11:14:42.699Z,101043.41
2019-06-08T11:15:44.931Z,101049.17
2019-06-08T11:16:47.680Z,101044.46
2019-06-08T11:17:50.150Z,101049.31
2019-06-08T11:18:54.684Z,101062.41
2019-06-08T11:19:59.397Z,101053.36
2019-06-08T11:21:02.400Z,101058.20
2019-06-08T11:22:10.455Z,101064.89
2019-06-08T11:23:12.296Z,101060.70
2019-06-08T11:24:23.680Z,101055.59
2019-06-08T11:25:19.750Z,101056.38
2019-06-08T11:26:24.379Z,101061.61
2019-06-08T11:27:25.421Z,101047.86
2019-06-08T11:28:28.310Z,101065.80
2019-06-08T11:29:31.223Z,101060.17
2019-06-08T11:30:33.557Z,101064.62
2019-06-08T11:31:39.204Z,101070.38
2019-06-08T11:32:41.681Z,101058.46
2019-06-08T11:33:44.289Z,101060.30
2019-06-08T11:34:48.656Z,101074.58
2019-06-08T11:35:50.755Z,101074.70
2019-06-08T11:36:52.987Z,101077.98
2019-06-08T11:37:58.299Z,101065.80
2019-06-08T11:39:00.484Z,101084.92
2019-06-08T11:40:04.537Z,101087.53
2019-06-08T11:41:10.207Z,101082.95
2019-06-08T11:42:12.924Z,101075.36
2019-06-08T11:43:15.033Z,101080.34
2019-06-08T11:44:18.236Z,101082.04
2019-06-08T11:45:20.639Z,101077.59
2019-06-08T11:46:23.249Z,101105.59
2019-06-08T11:47:27.781Z,101076.80
2019-06-08T11:48:29.871Z,101081.73
2019-06-08T11:49:32.087Z,101086.97
2019-06-08T11:50:34.733Z,101088.97
2019-06-08T11:51:37.859Z,101089.20
2019-06-08T11:52:40.595Z,101089.89
2019-06-08T11:53:42.956Z,101097.22
2019-06-08T11:54:47.936Z,101093.12
2019-06-08T11:55:51.132Z,101090.50
2019-06-08T11:56:53.859Z,101116.95
2019-06-08T11:57:58.502Z,101094.69
2019-06-08T11:59:01.073Z,101102.55
2019-06-08T12:00:10.751Z,101130.17
2019-06-08T12:01:12.860Z,101116.95
2019-06-08T12:02:14.272Z,101126.37
2019-06-08T12:03:16.991Z,101128.20
2019-06-08T12:04:19.207Z,101135.27
2019-06-08T12:05:21.824Z,101127.27
2019-06-08T12:06:24.060Z,101138.53
2019-06-08T12:07:29.973Z,101135.38
2019-06-08T12:08:30.527Z,101128.19
2019-06-08T12:10:54.344Z,101137.17
2019-06-08T12:11:58.121Z,101125.91
2019-06-08T12:13:00.547Z,101127.75
2019-06-08T12:14:03.165Z,101122.24
2019-06-08T12:15:05.387Z,101125.91
2019-06-08T12:16:14.643Z,101121.85